Time;durP1;ratioP1;P1;durP2;ratioP2;P2;SDS_P1;SDS_P2;PMS_P1;PMS_P2;Temp;Humidity;BMP_temperature;BMP_pressure;BME280_temperature;BME280_humidity;BME280_pressure;Samples;Min_cycle;Max_cycle;Signal;HPM_P1;HPM_P2
2021/07/30 00:01:07;;;;;;;36.58;22.63;;;;;;;;;;5098417;28;20044;-70
2021/07/30 00:03:33;;;;;;;30.10;17.90;;;;;;;;;;5085209;28;20046;-73
2021/07/30 00:06:00;;;;;;;30.63;16.90;;;;;;;;;;5092882;28;20038;-71
2021/07/30 00:08:26;;;;;;;24.20;14.60;;;;;;;;;;5093838;28;20413;-71
2021/07/30 00:10:58;;;;;;;24.52;14.68;;;;;;;;;;5079099;28;20047;-71
2021/07/30 00:13:24;;;;;;;25.92;15.30;;;;;;;;;;5076493;28;20496;-72
2021/07/30 00:15:51;;;;;;;24.88;14.88;;;;;;;;;;5089150;28;20052;-74
2021/07/30 00:18:17;;;;;;;33.03;15.95;;;;;;;;;;5053625;28;20044;-71
2021/07/30 00:20:44;;;;;;;28.70;14.77;;;;;;;;;;5072610;28;20040;-74
2021/07/30 00:23:10;;;;;;;32.05;17.83;;;;;;;;;;5084432;28;20050;-71
2021/07/30 00:25:37;;;;;;;28.02;15.23;;;;;;;;;;5061428;28;20063;-71
2021/07/30 00:28:04;;;;;;;26.80;14.70;;;;;;;;;;5080773;28;20093;-72
2021/07/30 00:30:30;;;;;;;25.23;13.38;;;;;;;;;;5066262;28;20047;-72
2021/07/30 00:32:58;;;;;;;26.23;14.15;;;;;;;;;;5081662;28;20040;-72
2021/07/30 00:35:25;;;;;;;24.98;14.20;;;;;;;;;;5063358;28;20055;-73
2021/07/30 00:37:51;;;;;;;26.05;13.80;;;;;;;;;;5083671;28;20036;-72
2021/07/30 00:40:19;;;;;;;24.38;13.65;;;;;;;;;;5080628;28;20044;-71
2021/07/30 00:42:53;;;;;;;25.08;13.82;;;;;;;;;;5066419;28;20168;-71
2021/07/30 00:45:21;;;;;;;27.58;14.75;;;;;;;;;;5065336;28;20062;-74
2021/07/30 00:47:49;;;;;;;26.15;15.73;;;;;;;;;;5044221;28;20044;-71
2021/07/30 00:50:17;;;;;;;23.33;17.00;;;;;;;;;;5079975;28;20086;-71
2021/07/30 00:52:44;;;;;;;25.42;16.10;;;;;;;;;;5071515;28;20044;-72
2021/07/30 00:55:11;;;;;;;25.15;15.85;;;;;;;;;;5063921;28;20070;-71
2021/07/30 00:57:40;;;;;;;27.50;16.60;;;;;;;;;;5049819;28;20036;-71
2021/07/30 01:00:08;;;;;;;29.02;15.13;;;;;;;;;;5081260;28;20489;-72
2021/07/30 01:02:37;;;;;;;29.15;17.05;;;;;;;;;;5046177;28;20052;-73
2021/07/30 01:05:04;;;;;;;26.75;17.27;;;;;;;;;;5073405;28;20040;-71
2021/07/30 01:07:31;;;;;;;31.30;19.17;;;;;;;;;;5055354;28;20055;-77
2021/07/30 01:10:01;;;;;;;30.23;20.63;;;;;;;;;;5070517;28;20036;-77
2021/07/30 01:12:27;;;;;;;34.35;20.33;;;;;;;;;;5065679;28;20036;-78
2021/07/30 01:14:54;;;;;;;36.35;21.33;;;;;;;;;;5053799;28;20044;-77
2021/07/30 01:17:22;;;;;;;35.13;20.17;;;;;;;;;;5082997;28;20036;-78
2021/07/30 01:19:48;;;;;;;29.70;18.95;;;;;;;;;;5071662;28;20040;-79
2021/07/30 01:22:30;;;;;;;38.95;23.85;;;;;;;;;;5065444;28;20174;-76
2021/07/30 01:24:57;;;;;;;55.70;31.52;;;;;;;;;;5064673;28;20393;-77
2021/07/30 01:27:25;;;;;;;50.53;30.80;;;;;;;;;;5055997;28;20434;-77
2021/07/30 01:29:52;;;;;;;67.65;41.65;;;;;;;;;;5071345;28;20040;-78
2021/07/30 01:32:19;;;;;;;64.60;40.42;;;;;;;;;;5055316;28;20036;-77
2021/07/30 01:34:47;;;;;;;63.28;41.10;;;;;;;;;;5081007;28;20043;-78
2021/07/30 01:37:13;;;;;;;64.15;38.20;;;;;;;;;;5082540;28;20564;-77
2021/07/30 01:39:40;;;;;;;65.80;37.63;;;;;;;;;;5082897;28;20548;-77
2021/07/30 01:42:08;;;;;;;64.15;37.42;;;;;;;;;;5050892;28;20043;-78
2021/07/30 01:44:35;;;;;;;65.03;37.85;;;;;;;;;;5044918;28;20044;-77
2021/07/30 01:47:01;;;;;;;56.42;31.30;;;;;;;;;;5066269;28;20032;-77
2021/07/30 01:49:28;;;;;;;38.50;24.25;;;;;;;;;;5079408;28;20398;-79
2021/07/30 01:51:54;;;;;;;38.33;22.58;;;;;;;;;;5095623;28;20100;-77
2021/07/30 01:54:21;;;;;;;36.13;23.40;;;;;;;;;;5061793;28;20050;-78
2021/07/30 01:56:48;;;;;;;37.97;21.17;;;;;;;;;;5088991;28;20123;-77
2021/07/30 01:59:15;;;;;;;36.75;20.13;;;;;;;;;;5070407;28;20216;-78
2021/07/30 02:01:42;;;;;;;38.25;22.95;;;;;;;;;;5068314;28;20046;-77
2021/07/30 02:04:09;;;;;;;39.45;21.65;;;;;;;;;;5029480;28;20066;-77
2021/07/30 02:06:37;;;;;;;33.08;20.98;;;;;;;;;;5070349;28;20044;-77
2021/07/30 02:09:03;;;;;;;45.28;30.40;;;;;;;;;;5064706;28;20042;-79
2021/07/30 02:11:30;;;;;;;60.67;37.65;;;;;;;;;;5080465;28;20063;-77
2021/07/30 02:14:17;;;;;;;71.05;43.05;;;;;;;;;;5082553;28;20127;-77
2021/07/30 02:16:49;;;;;;;75.82;52.78;;;;;;;;;;5047651;28;20047;-78
2021/07/30 02:19:17;;;;;;;142.88;104.43;;;;;;;;;;5040774;28;20061;-77
2021/07/30 02:21:45;;;;;;;136.25;102.32;;;;;;;;;;5073872;28;20036;-77
2021/07/30 02:24:11;;;;;;;172.43;128.25;;;;;;;;;;5091390;28;20044;-78
2021/07/30 02:26:38;;;;;;;160.75;117.43;;;;;;;;;;5099585;28;20036;-77
2021/07/30 02:29:08;;;;;;;173.82;131.57;;;;;;;;;;5098246;28;20118;-78
2021/07/30 02:31:35;;;;;;;151.43;116.68;;;;;;;;;;5060771;28;20039;-77
2021/07/30 02:34:01;;;;;;;182.00;141.10;;;;;;;;;;5082480;28;20582;-78
2021/07/30 02:36:29;;;;;;;182.07;141.77;;;;;;;;;;5091704;28;20040;-78
2021/07/30 02:38:56;;;;;;;191.35;153.55;;;;;;;;;;5100591;28;20490;-77
2021/07/30 02:41:22;;;;;;;204.30;159.45;;;;;;;;;;5086176;28;20497;-77
2021/07/30 02:43:49;;;;;;;201.05;159.60;;;;;;;;;;5073499;28;20039;-78
2021/07/30 02:46:19;;;;;;;200.75;158.48;;;;;;;;;;5098096;28;20550;-78
2021/07/30 02:48:46;;;;;;;188.93;144.75;;;;;;;;;;5099246;28;20039;-78
2021/07/30 02:51:14;;;;;;;184.88;144.30;;;;;;;;;;5067029;28;20047;-77
2021/07/30 02:53:41;;;;;;;175.18;135.82;;;;;;;;;;5081810;28;20128;-77
2021/07/30 02:56:09;;;;;;;179.10;133.02;;;;;;;;;;5074076;28;20463;-77
2021/07/30 02:58:36;;;;;;;160.80;123.03;;;;;;;;;;5082669;28;20036;-78
2021/07/30 03:01:05;;;;;;;158.27;116.93;;;;;;;;;;5057022;28;20119;-77
2021/07/30 03:03:31;;;;;;;;;;;;;;;;;;5068933;28;20098;-78
2021/07/30 03:06:01;;;;;;;158.82;118.68;;;;;;;;;;5073559;28;19924;-78
2021/07/30 03:08:31;;;;;;;167.18;125.97;;;;;;;;;;5084369;28;20048;-77
2021/07/30 03:10:58;;;;;;;160.18;122.75;;;;;;;;;;5086064;28;20070;-77
2021/07/30 03:13:25;;;;;;;159.07;123.10;;;;;;;;;;5085066;28;20040;-77
2021/07/30 03:15:55;;;;;;;153.90;116.93;;;;;;;;;;5085174;28;20039;-77
2021/07/30 03:18:22;;;;;;;143.40;109.72;;;;;;;;;;5074253;28;20508;-78
2021/07/30 03:20:49;;;;;;;128.98;93.18;;;;;;;;;;5084578;28;20464;-78
2021/07/30 03:23:16;;;;;;;115.82;85.25;;;;;;;;;;5085576;28;20066;-78
2021/07/30 03:25:42;;;;;;;101.40;74.95;;;;;;;;;;5086456;28;20043;-77
2021/07/30 03:28:09;;;;;;;105.85;73.97;;;;;;;;;;5086410;28;20511;-77
2021/07/30 03:30:35;;;;;;;69.03;46.80;;;;;;;;;;5086216;28;20043;-78
2021/07/30 03:33:03;;;;;;;66.88;45.42;;;;;;;;;;5086134;28;20028;-77
2021/07/30 03:35:30;;;;;;;64.07;41.92;;;;;;;;;;5067543;28;20036;-78
2021/07/30 03:37:56;;;;;;;62.80;40.80;;;;;;;;;;5067399;28;20498;-78
2021/07/30 03:40:23;;;;;;;61.47;38.47;;;;;;;;;;5086178;28;20119;-77
2021/07/30 03:42:49;;;;;;;58.55;37.83;;;;;;;;;;5084488;28;20048;-78
2021/07/30 03:45:16;;;;;;;58.20;35.80;;;;;;;;;;5086199;28;20050;-77
2021/07/30 03:47:42;;;;;;;52.30;33.53;;;;;;;;;;5067176;28;20509;-78
2021/07/30 03:50:09;;;;;;;55.60;35.05;;;;;;;;;;5086040;28;20096;-77
2021/07/30 03:52:36;;;;;;;57.60;35.17;;;;;;;;;;5066564;28;20040;-78
2021/07/30 03:55:02;;;;;;;47.58;33.30;;;;;;;;;;5065924;28;20059;-77
2021/07/30 03:57:30;;;;;;;52.47;33.15;;;;;;;;;;5084818;28;20498;-77
2021/07/30 03:59:56;;;;;;;51.88;32.58;;;;;;;;;;5082895;28;20044;-78
2021/07/30 04:02:23;;;;;;;51.72;32.80;;;;;;;;;;5084781;28;20081;-77
2021/07/30 04:04:49;;;;;;;46.25;32.13;;;;;;;;;;5083875;28;20567;-78
2021/07/30 04:07:16;;;;;;;49.88;30.77;;;;;;;;;;5084231;28;20048;-77
2021/07/30 04:09:42;;;;;;;47.55;31.48;;;;;;;;;;5066195;28;20064;-77
2021/07/30 04:12:09;;;;;;;62.15;44.88;;;;;;;;;;5066093;28;20048;-77
2021/07/30 04:14:36;;;;;;;63.80;46.65;;;;;;;;;;5084502;28;20075;-77
2021/07/30 04:17:03;;;;;;;63.30;43.00;;;;;;;;;;5083986;28;20048;-77
2021/07/30 04:19:30;;;;;;;49.60;31.40;;;;;;;;;;5084081;28;20161;-77
2021/07/30 04:21:56;;;;;;;41.67;25.58;;;;;;;;;;5066007;28;20067;-78
2021/07/30 04:24:22;;;;;;;40.80;28.80;;;;;;;;;;5066276;28;20044;-77
2021/07/30 04:26:49;;;;;;;38.80;27.40;;;;;;;;;;5084049;28;20088;-77
2021/07/30 04:29:15;;;;;;;34.95;24.73;;;;;;;;;;5084070;28;20119;-78
2021/07/30 04:31:42;;;;;;;46.13;26.42;;;;;;;;;;5083702;28;20043;-77
2021/07/30 04:34:08;;;;;;;40.53;26.08;;;;;;;;;;5066123;28;20044;-77
2021/07/30 04:36:35;;;;;;;39.13;26.27;;;;;;;;;;5083610;28;20123;-77
2021/07/30 04:39:02;;;;;;;47.38;30.50;;;;;;;;;;5065463;28;20502;-77
2021/07/30 04:41:28;;;;;;;50.15;36.50;;;;;;;;;;5065645;28;20071;-77
2021/07/30 04:43:55;;;;;;;58.85;40.90;;;;;;;;;;5065174;28;20036;-77
2021/07/30 04:46:21;;;;;;;66.60;42.45;;;;;;;;;;5083559;28;20077;-77
2021/07/30 04:48:48;;;;;;;59.67;41.03;;;;;;;;;;5083469;28;20078;-77
2021/07/30 04:51:14;;;;;;;53.20;37.53;;;;;;;;;;5065968;28;20039;-77
2021/07/30 04:53:42;;;;;;;54.42;37.55;;;;;;;;;;4964221;28;2905124;-78
2021/07/30 04:56:16;;;;;;;55.67;37.88;;;;;;;;;;5066367;28;20055;-76
2021/07/30 04:58:42;;;;;;;53.72;35.65;;;;;;;;;;5084344;28;20043;-77
2021/07/30 05:01:09;;;;;;;54.08;35.97;;;;;;;;;;5084124;28;20101;-77
2021/07/30 05:03:35;;;;;;;50.33;32.92;;;;;;;;;;5082855;28;20050;-78
2021/07/30 05:06:14;;;;;;;45.95;31.60;;;;;;;;;;5065513;28;20068;-77
2021/07/30 05:08:41;;;;;;;50.88;30.42;;;;;;;;;;5065539;28;20040;-78
2021/07/30 05:11:10;;;;;;;44.78;29.25;;;;;;;;;;5084096;28;20093;-77
2021/07/30 05:13:41;;;;;;;46.67;28.33;;;;;;;;;;5066415;28;20544;-78
2021/07/30 05:16:09;;;;;;;40.90;26.90;;;;;;;;;;5083726;28;20040;-77
2021/07/30 05:18:36;;;;;;;40.40;26.63;;;;;;;;;;5065589;28;20498;-77
2021/07/30 05:21:13;;;;;;;42.63;26.27;;;;;;;;;;5083134;28;20579;-77
2021/07/30 05:23:41;;;;;;;38.53;25.10;;;;;;;;;;5084184;28;20101;-77
2021/07/30 05:26:08;;;;;;;36.67;22.40;;;;;;;;;;5065386;28;20421;-77
2021/07/30 05:28:37;;;;;;;43.03;23.67;;;;;;;;;;5083902;28;20440;-77
2021/07/30 05:31:04;;;;;;;43.20;23.95;;;;;;;;;;5083860;28;20036;-77
2021/07/30 05:33:31;;;;;;;39.25;24.17;;;;;;;;;;5084076;28;20074;-77
2021/07/30 05:35:58;;;;;;;39.65;23.35;;;;;;;;;;5084177;28;20063;-77
2021/07/30 05:38:24;;;;;;;39.03;22.63;;;;;;;;;;5083530;28;20067;-77
2021/07/30 05:40:51;;;;;;;45.65;23.70;;;;;;;;;;5083018;28;20028;-77
2021/07/30 05:43:20;;;;;;;36.83;23.25;;;;;;;;;;5083552;28;20059;-77
2021/07/30 05:45:46;;;;;;;38.30;24.00;;;;;;;;;;5083382;28;20059;-77
2021/07/30 05:48:13;;;;;;;37.20;22.85;;;;;;;;;;5065694;28;20066;-77
2021/07/30 05:50:39;;;;;;;31.08;22.75;;;;;;;;;;5082104;28;20044;-77
2021/07/30 05:53:06;;;;;;;34.70;22.75;;;;;;;;;;5082366;28;20047;-77
2021/07/30 05:55:32;;;;;;;32.25;22.38;;;;;;;;;;5083475;28;20055;-77
2021/07/30 05:57:59;;;;;;;36.45;24.23;;;;;;;;;;5083443;28;20059;-77
2021/07/30 06:00:26;;;;;;;40.05;24.10;;;;;;;;;;5083682;28;20052;-76
2021/07/30 06:02:52;;;;;;;38.55;24.13;;;;;;;;;;5083199;28;20047;-77
2021/07/30 06:05:19;;;;;;;36.70;23.30;;;;;;;;;;5083526;28;20085;-76
2021/07/30 06:07:46;;;;;;;35.08;22.13;;;;;;;;;;5082696;28;20037;-76
2021/07/30 06:10:12;;;;;;;39.95;20.90;;;;;;;;;;5083682;28;20071;-76
2021/07/30 06:12:38;;;;;;;38.38;23.65;;;;;;;;;;5082905;28;20048;-76
2021/07/30 06:15:06;;;;;;;37.35;23.80;;;;;;;;;;5083459;28;20384;-77
2021/07/30 06:17:32;;;;;;;33.90;23.75;;;;;;;;;;5065494;28;20046;-76
2021/07/30 06:19:59;;;;;;;38.25;24.63;;;;;;;;;;5082750;28;20040;-77
2021/07/30 06:22:25;;;;;;;38.33;25.17;;;;;;;;;;5083501;28;20040;-77
2021/07/30 06:24:52;;;;;;;34.95;24.77;;;;;;;;;;5081323;28;20040;-77
2021/07/30 06:27:20;;;;;;;37.70;27.13;;;;;;;;;;5083411;28;20119;-77
2021/07/30 06:29:46;;;;;;;35.47;24.17;;;;;;;;;;5082643;28;20123;-77
2021/07/30 06:32:13;;;;;;;32.85;23.85;;;;;;;;;;5082747;28;20044;-77
2021/07/30 06:34:39;;;;;;;41.00;23.65;;;;;;;;;;5083120;28;20040;-77
2021/07/30 06:37:06;;;;;;;38.35;22.50;;;;;;;;;;5082927;28;20138;-77
2021/07/30 06:39:32;;;;;;;41.08;26.27;;;;;;;;;;5083119;28;20049;-77
2021/07/30 06:41:59;;;;;;;38.65;25.50;;;;;;;;;;5082666;28;20040;-77
2021/07/30 06:44:25;;;;;;;39.45;25.70;;;;;;;;;;5083333;28;20051;-78
2021/07/30 06:46:52;;;;;;;34.45;24.42;;;;;;;;;;5082719;28;20200;-77
2021/07/30 06:49:18;;;;;;;35.55;22.58;;;;;;;;;;5083211;28;20048;-77
2021/07/30 06:51:45;;;;;;;36.47;22.10;;;;;;;;;;5082303;28;20044;-77
2021/07/30 06:54:11;;;;;;;33.50;23.65;;;;;;;;;;5082900;28;20177;-77
2021/07/30 06:56:38;;;;;;;37.88;24.67;;;;;;;;;;5082620;28;20047;-77
2021/07/30 06:59:04;;;;;;;38.53;24.45;;;;;;;;;;5082537;28;20398;-77
2021/07/30 07:01:31;;;;;;;48.05;26.33;;;;;;;;;;5082622;28;20040;-77
2021/07/30 07:03:59;;;;;;;37.05;25.20;;;;;;;;;;5081955;28;20055;-78
2021/07/30 07:06:25;;;;;;;34.92;23.40;;;;;;;;;;5082810;28;20454;-77
2021/07/30 07:08:52;;;;;;;32.47;22.08;;;;;;;;;;5082348;28;20067;-76
2021/07/30 07:11:18;;;;;;;34.92;22.85;;;;;;;;;;5082937;28;20048;-78
2021/07/30 07:13:45;;;;;;;35.80;22.50;;;;;;;;;;5064583;28;20032;-77
2021/07/30 07:16:11;;;;;;;36.45;21.73;;;;;;;;;;5064808;28;20044;-77
2021/07/30 07:18:38;;;;;;;29.98;18.65;;;;;;;;;;5082339;28;20379;-77
2021/07/30 07:21:04;;;;;;;28.77;18.92;;;;;;;;;;5081330;28;20068;-78
2021/07/30 07:23:31;;;;;;;30.35;18.52;;;;;;;;;;5082172;28;20059;-77
2021/07/30 07:26:00;;;;;;;27.77;19.15;;;;;;;;;;5082649;28;20713;-77
2021/07/30 07:28:27;;;;;;;30.30;17.27;;;;;;;;;;5082424;28;20044;-77
2021/07/30 07:30:54;;;;;;;28.27;16.85;;;;;;;;;;5082153;28;20725;-77
2021/07/30 07:33:20;;;;;;;28.90;19.92;;;;;;;;;;5082421;28;20170;-77
2021/07/30 07:35:47;;;;;;;26.13;17.58;;;;;;;;;;5082514;28;20060;-77
2021/07/30 07:38:13;;;;;;;25.60;17.75;;;;;;;;;;5082309;28;20170;-77
2021/07/30 07:40:40;;;;;;;26.85;18.70;;;;;;;;;;5065575;28;20510;-77
2021/07/30 07:43:06;;;;;;;26.77;17.55;;;;;;;;;;5086316;28;20062;-77
2021/07/30 07:45:33;;;;;;;31.23;19.98;;;;;;;;;;5067447;28;20418;-77
2021/07/30 07:47:59;;;;;;;33.80;19.52;;;;;;;;;;5086438;28;20040;-77
2021/07/30 07:50:26;;;;;;;34.35;22.23;;;;;;;;;;5075293;28;20040;-77
2021/07/30 07:52:52;;;;;;;33.03;21.33;;;;;;;;;;5084995;28;20056;-77
2021/07/30 07:55:19;;;;;;;30.30;20.90;;;;;;;;;;5067369;28;20032;-77
2021/07/30 07:57:45;;;;;;;34.20;21.60;;;;;;;;;;5086027;28;20504;-77
2021/07/30 08:00:12;;;;;;;33.20;20.60;;;;;;;;;;5085640;28;20056;-76
2021/07/30 08:02:39;;;;;;;36.67;20.33;;;;;;;;;;5085546;28;20059;-77
2021/07/30 08:05:06;;;;;;;38.17;22.15;;;;;;;;;;5085973;28;20096;-77
2021/07/30 08:07:32;;;;;;;30.65;20.85;;;;;;;;;;5067087;28;20044;-77
2021/07/30 08:09:58;;;;;;;37.90;22.70;;;;;;;;;;5085677;28;20040;-77
2021/07/30 08:12:25;;;;;;;30.63;21.10;;;;;;;;;;5085166;28;20113;-77
2021/07/30 08:14:52;;;;;;;37.70;22.80;;;;;;;;;;5084634;28;22827;-77
2021/07/30 08:17:19;;;;;;;32.45;21.60;;;;;;;;;;5085624;28;20051;-76
2021/07/30 08:19:50;;;;;;;35.78;21.67;;;;;;;;;;5066873;28;20048;-77
2021/07/30 08:22:18;;;;;;;31.90;20.17;;;;;;;;;;5085048;28;20041;-78
2021/07/30 08:24:44;;;;;;;31.98;22.17;;;;;;;;;;5085331;28;20073;-77
2021/07/30 08:27:11;;;;;;;35.17;20.63;;;;;;;;;;5085023;28;20115;-77
2021/07/30 08:29:37;;;;;;;27.98;19.95;;;;;;;;;;5085478;28;20436;-77
2021/07/30 08:32:04;;;;;;;28.27;21.05;;;;;;;;;;5066906;28;20036;-78
2021/07/30 08:34:30;;;;;;;32.17;21.38;;;;;;;;;;5084961;28;20059;-76
2021/07/30 08:36:57;;;;;;;33.67;22.48;;;;;;;;;;5066913;28;20059;-76
2021/07/30 08:39:23;;;;;;;30.67;19.17;;;;;;;;;;5066574;28;20040;-77
2021/07/30 08:41:51;;;;;;;32.63;20.10;;;;;;;;;;5084957;28;20043;-77
2021/07/30 08:44:17;;;;;;;33.03;20.67;;;;;;;;;;5084581;28;21098;-77
2021/07/30 08:46:45;;;;;;;31.52;20.38;;;;;;;;;;5067070;28;20052;-77
2021/07/30 08:49:11;;;;;;;30.30;19.92;;;;;;;;;;5066670;28;20062;-77
2021/07/30 08:51:42;;;;;;;32.33;20.90;;;;;;;;;;5083027;28;20508;-77
2021/07/30 08:54:09;;;;;;;37.95;23.05;;;;;;;;;;5084404;28;20121;-77
2021/07/30 08:56:39;;;;;;;29.17;18.33;;;;;;;;;;5084938;28;20118;-78
2021/07/30 08:59:08;;;;;;;32.95;22.10;;;;;;;;;;5084563;28;20417;-78
2021/07/30 09:01:35;;;;;;;31.83;20.02;;;;;;;;;;5084328;28;20036;-78
2021/07/30 09:04:02;;;;;;;30.52;19.70;;;;;;;;;;5083328;28;20036;-78
2021/07/30 09:06:29;;;;;;;32.58;21.48;;;;;;;;;;5084341;28;20074;-78
2021/07/30 09:09:01;;;;;;;26.50;17.95;;;;;;;;;;5083974;28;20052;-78
2021/07/30 09:11:51;;;;;;;26.75;17.67;;;;;;;;;;5084291;28;20077;-78
2021/07/30 09:14:32;;;;;;;26.85;19.55;;;;;;;;;;5084026;28;20035;-79
2021/07/30 09:16:59;;;;;;;29.77;18.88;;;;;;;;;;5084226;28;20036;-78
2021/07/30 09:19:25;;;;;;;30.08;20.20;;;;;;;;;;5084547;28;20090;-78
2021/07/30 09:22:08;;;;;;;26.38;18.42;;;;;;;;;;5083928;28;20508;-78
2021/07/30 09:24:39;;;;;;;29.77;16.95;;;;;;;;;;5084033;28;20098;-77
2021/07/30 09:27:10;;;;;;;28.90;18.17;;;;;;;;;;5083800;28;20067;-76
2021/07/30 09:29:38;;;;;;;30.75;18.75;;;;;;;;;;5066388;28;20038;-76
2021/07/30 09:32:10;;;;;;;29.15;18.55;;;;;;;;;;5083764;28;20047;-76
2021/07/30 09:34:51;;;;;;;28.95;18.33;;;;;;;;;;5083700;28;20036;-76
2021/07/30 09:37:26;;;;;;;24.95;17.30;;;;;;;;;;5083422;28;20040;-77
2021/07/30 09:39:53;;;;;;;32.75;19.35;;;;;;;;;;5065580;28;20048;-77
2021/07/30 09:42:28;;;;;;;30.38;19.35;;;;;;;;;;5083541;28;20051;-77
2021/07/30 09:44:59;;;;;;;32.38;19.50;;;;;;;;;;5085032;28;20050;-77
2021/07/30 09:47:32;;;;;;;30.42;18.60;;;;;;;;;;5092471;28;20432;-77
2021/07/30 09:50:04;;;;;;;33.80;20.02;;;;;;;;;;5083592;28;20040;-77
2021/07/30 09:52:33;;;;;;;31.40;18.85;;;;;;;;;;5083149;28;20064;-77
2021/07/30 09:55:00;;;;;;;;;;;;;;;;;;5083741;28;20498;-77
2021/07/30 09:57:32;;;;;;;35.88;19.77;;;;;;;;;;5083885;28;19916;-76
2021/07/30 10:00:09;;;;;;;33.03;18.88;;;;;;;;;;5083205;28;20036;-77
2021/07/30 10:02:38;;;;;;;30.48;20.33;;;;;;;;;;5083111;28;20040;-77
2021/07/30 10:05:06;;;;;;;35.20;19.75;;;;;;;;;;5082986;28;20043;-76
2021/07/30 10:07:36;;;;;;;30.60;20.48;;;;;;;;;;5083513;28;20093;-77
2021/07/30 10:10:14;;;;;;;32.20;20.25;;;;;;;;;;5087005;28;20043;-77
2021/07/30 10:12:48;;;;;;;31.60;19.13;;;;;;;;;;5077151;28;20036;-77
2021/07/30 10:15:14;;;;;;;32.25;20.42;;;;;;;;;;5068099;28;20105;-77
2021/07/30 10:17:49;;;;;;;33.15;19.45;;;;;;;;;;5082840;28;20048;-77
2021/07/30 10:20:21;;;;;;;39.00;22.30;;;;;;;;;;5082768;28;20070;-76
2021/07/30 10:23:07;;;;;;;32.13;19.73;;;;;;;;;;5082950;28;20581;-77
2021/07/30 10:25:39;;;;;;;34.08;21.55;;;;;;;;;;5083011;28;20051;-76
2021/07/30 10:28:17;;;;;;;29.58;18.55;;;;;;;;;;5082541;28;20127;-76
2021/07/30 10:30:58;;;;;;;28.63;19.10;;;;;;;;;;5082870;28;20063;-76
2021/07/30 10:33:31;;;;;;;29.25;19.50;;;;;;;;;;5082915;28;20040;-76
2021/07/30 10:35:59;;;;;;;29.63;18.77;;;;;;;;;;5083029;28;20040;-76
2021/07/30 10:38:26;;;;;;;26.85;15.30;;;;;;;;;;5082248;28;20123;-76
2021/07/30 10:41:07;;;;;;;22.73;14.57;;;;;;;;;;5081418;28;20063;-76
2021/07/30 10:44:01;;;;;;;23.67;15.18;;;;;;;;;;5064759;28;20066;-76
2021/07/30 10:46:28;;;;;;;33.40;17.73;;;;;;;;;;5064758;28;20040;-76
2021/07/30 10:48:55;;;;;;;29.85;16.90;;;;;;;;;;5064377;28;20040;-76
2021/07/30 10:51:28;;;;;;;25.17;14.55;;;;;;;;;;5082572;28;20433;-77
2021/07/30 10:54:06;;;;;;;24.08;16.42;;;;;;;;;;5064687;28;20040;-77
2021/07/30 10:56:32;;;;;;;26.05;17.35;;;;;;;;;;5064465;28;20040;-77
2021/07/30 10:59:03;;;;;;;29.13;17.38;;;;;;;;;;5082798;28;20052;-77
2021/07/30 11:01:29;;;;;;;26.80;16.75;;;;;;;;;;5064583;28;20119;-77
2021/07/30 11:03:58;;;;;;;26.73;16.85;;;;;;;;;;5082984;28;20075;-76
2021/07/30 11:06:40;;;;;;;20.30;13.77;;;;;;;;;;5082083;28;20070;-77
2021/07/30 11:09:06;;;;;;;26.17;16.92;;;;;;;;;;5082782;28;20051;-77
2021/07/30 11:11:52;;;;;;;24.48;15.18;;;;;;;;;;5082835;28;20052;-77
2021/07/30 11:14:25;;;;;;;19.38;13.43;;;;;;;;;;5082362;28;20048;-77
2021/07/30 11:17:03;;;;;;;20.63;12.77;;;;;;;;;;5085174;28;20075;-77
2021/07/30 11:19:30;;;;;;;25.48;14.02;;;;;;;;;;5085721;28;20044;-77
2021/07/30 11:21:58;;;;;;;19.73;11.73;;;;;;;;;;5067861;28;20101;-77
2021/07/30 11:24:25;;;;;;;17.63;10.90;;;;;;;;;;5085488;28;20051;-77
2021/07/30 11:26:52;;;;;;;20.70;12.30;;;;;;;;;;5067032;28;20078;-77
2021/07/30 11:29:23;;;;;;;21.60;12.00;;;;;;;;;;5067677;28;20040;-78
2021/07/30 11:32:12;;;;;;;18.67;12.30;;;;;;;;;;5067783;28;20032;-77
2021/07/30 11:34:40;;;;;;;22.70;12.63;;;;;;;;;;5086133;28;20047;-78
2021/07/30 11:37:11;;;;;;;18.88;12.48;;;;;;;;;;5066968;28;20048;-77
2021/07/30 11:39:46;;;;;;;23.98;12.02;;;;;;;;;;5086335;28;20040;-77
2021/07/30 11:42:13;;;;;;;;;;;;;;;;;;5086827;28;20048;-78
2021/07/30 11:44:48;;;;;;;17.65;10.15;;;;;;;;;;5086109;28;19924;-77
2021/07/30 11:47:17;;;;;;;16.13;9.48;;;;;;;;;;5086322;28;20068;-77
2021/07/30 11:49:45;;;;;;;15.85;9.73;;;;;;;;;;5086339;28;20043;-77
2021/07/30 11:52:20;;;;;;;12.02;8.75;;;;;;;;;;5068188;28;20217;-77
2021/07/30 11:54:46;;;;;;;18.95;11.77;;;;;;;;;;5085902;28;20502;-77
2021/07/30 11:57:25;;;;;;;20.08;10.27;;;;;;;;;;5085931;28;20048;-77
2021/07/30 11:59:52;;;;;;;17.63;10.48;;;;;;;;;;5086081;28;20119;-76
2021/07/30 12:02:18;;;;;;;15.10;9.60;;;;;;;;;;5086284;28;20490;-77
2021/07/30 12:04:56;;;;;;;17.60;10.50;;;;;;;;;;5086041;28;20336;-76
2021/07/30 12:07:35;;;;;;;15.80;10.95;;;;;;;;;;5067876;28;20040;-76
2021/07/30 12:10:05;;;;;;;18.63;11.40;;;;;;;;;;5085147;28;20132;-76
2021/07/30 12:12:42;;;;;;;15.55;11.32;;;;;;;;;;5071832;28;20032;-77
2021/07/30 12:15:10;;;;;;;18.05;11.35;;;;;;;;;;5065803;28;20409;-76
2021/07/30 12:17:38;;;;;;;18.52;11.30;;;;;;;;;;5084377;28;20528;-76
2021/07/30 12:20:11;;;;;;;17.92;12.00;;;;;;;;;;5072917;28;20490;-76
2021/07/30 12:22:37;;;;;;;16.35;10.98;;;;;;;;;;5072787;28;20050;-76
2021/07/30 12:25:05;;;;;;;17.98;12.27;;;;;;;;;;5084426;28;20040;-76
2021/07/30 12:27:32;;;;;;;16.15;11.00;;;;;;;;;;5062366;28;20119;-76
2021/07/30 12:29:59;;;;;;;14.07;9.82;;;;;;;;;;5080354;28;20421;-76
2021/07/30 12:32:36;;;;;;;16.67;10.63;;;;;;;;;;5049654;28;20051;-75
2021/07/30 12:35:06;;;;;;;17.10;12.18;;;;;;;;;;5069306;28;20086;-74
2021/07/30 12:37:34;;;;;;;10.48;8.15;;;;;;;;;;5064040;28;20048;-76
2021/07/30 12:40:03;;;;;;;13.02;9.00;;;;;;;;;;5060813;28;20071;-74
2021/07/30 12:42:34;;;;;;;14.90;9.10;;;;;;;;;;5072402;28;20105;-74
2021/07/30 12:45:09;;;;;;;18.58;8.68;;;;;;;;;;5069403;28;20051;-74
2021/07/30 12:47:48;;;;;;;15.30;8.15;;;;;;;;;;5081770;28;20051;-74
2021/07/30 12:50:35;;;;;;;13.73;7.60;;;;;;;;;;5081892;28;20131;-75
2021/07/30 12:53:02;;;;;;;;;;;;;;;;;;5071049;28;20102;-74
2021/07/30 12:55:28;;;;;;;10.98;6.53;;;;;;;;;;5068589;28;19924;-74
2021/07/30 12:57:55;;;;;;;13.07;7.20;;;;;;;;;;5083104;28;20039;-74
2021/07/30 13:00:32;;;;;;;11.57;6.05;;;;;;;;;;5086452;28;20050;-75
2021/07/30 13:02:59;;;;;;;10.15;6.35;;;;;;;;;;5069224;28;20532;-73
2021/07/30 13:05:30;;;;;;;13.18;6.15;;;;;;;;;;5051016;28;20107;-74
2021/07/30 13:07:58;;;;;;;8.38;5.55;;;;;;;;;;5079641;28;20090;-74
2021/07/30 13:10:25;;;;;;;8.32;5.13;;;;;;;;;;5079129;28;20655;-75
2021/07/30 13:12:53;;;;;;;9.88;5.70;;;;;;;;;;5098741;28;20036;-76
2021/07/30 13:15:20;;;;;;;9.30;4.70;;;;;;;;;;5089809;28;20774;-75
2021/07/30 13:17:49;;;;;;;9.07;4.88;;;;;;;;;;5090046;28;20040;-74
2021/07/30 13:20:16;;;;;;;10.00;4.53;;;;;;;;;;5064346;28;20039;-74
2021/07/30 13:22:42;;;;;;;7.15;4.13;;;;;;;;;;5073420;28;20044;-74
2021/07/30 13:25:11;;;;;;;;;;;;;;;;;;5063146;28;20040;-76
2021/07/30 13:27:37;;;;;;;7.70;4.53;;;;;;;;;;5043394;28;19951;-74
2021/07/30 13:30:05;;;;;;;8.88;4.75;;;;;;;;;;5077387;28;20054;-74
2021/07/30 13:32:31;;;;;;;8.73;5.00;;;;;;;;;;5077311;28;20051;-75
2021/07/30 13:34:58;;;;;;;8.85;5.03;;;;;;;;;;5042282;28;20043;-76
2021/07/30 13:37:24;;;;;;;11.02;5.43;;;;;;;;;;5087551;28;20088;-75
2021/07/30 13:39:51;;;;;;;9.43;5.20;;;;;;;;;;5099691;28;20127;-75
2021/07/30 13:42:20;;;;;;;10.82;6.35;;;;;;;;;;5085413;28;20110;-74
2021/07/30 13:44:52;;;;;;;18.27;9.63;;;;;;;;;;5086518;28;20059;-74
2021/07/30 13:47:20;;;;;;;24.35;10.57;;;;;;;;;;5080211;28;20051;-74
2021/07/30 13:49:49;;;;;;;18.40;8.38;;;;;;;;;;5064419;28;20059;-75
2021/07/30 13:52:16;;;;;;;13.80;7.43;;;;;;;;;;5097641;28;20056;-74
2021/07/30 13:54:43;;;;;;;17.98;7.30;;;;;;;;;;5093800;28;20044;-74
2021/07/30 13:57:11;;;;;;;10.57;6.10;;;;;;;;;;5061917;28;20568;-75
2021/07/30 13:59:38;;;;;;;12.40;6.72;;;;;;;;;;5073811;28;20050;-74
2021/07/30 14:02:05;;;;;;;10.70;6.45;;;;;;;;;;5099082;28;20066;-73
2021/07/30 14:04:36;;;;;;;13.57;7.28;;;;;;;;;;5098949;28;20545;-75
2021/07/30 14:07:04;;;;;;;10.30;5.20;;;;;;;;;;5081978;28;20122;-73
2021/07/30 14:09:38;;;;;;;11.25;5.85;;;;;;;;;;5072976;28;20098;-76
2021/07/30 14:12:07;;;;;;;14.57;6.28;;;;;;;;;;5074075;28;20055;-77
2021/07/30 14:14:39;;;;;;;14.60;6.43;;;;;;;;;;5073616;28;20044;-76
2021/07/30 14:17:06;;;;;;;11.32;5.10;;;;;;;;;;5058966;28;20088;-74
2021/07/30 14:19:38;;;;;;;10.60;4.90;;;;;;;;;;5072966;28;20044;-75
2021/07/30 14:22:06;;;;;;;9.60;3.70;;;;;;;;;;5071096;28;20051;-74
2021/07/30 14:24:33;;;;;;;7.07;4.00;;;;;;;;;;5072450;28;20043;-74
2021/07/30 14:27:00;;;;;;;12.23;4.70;;;;;;;;;;5051018;28;20040;-76